Portada
METAR-TAF:

METAR-TAF

Aeroports :

Gillespie Field

San Diego-El Cajon, Califòrnia, Estats Units d'Amèrica

latitud: 32-50N, longitud: 116-58W, altitud: 117 m

Observació

L'informe es va fer fa 1 hora i 7 minuts, a les 21:47 UTC
Vent 9 kt del Oest/Sud-Oest
Temperatura 22°C
Humitat 53%
Pressió 1014 hPa
Visibilitat: 16.1 km
Cel clar

METAR: KSEE 302147Z 24009KT 10SM SKC 22/12 A2995

Hora: 15:54 (22:54 UTC)


TAF: manca

Observacions i pronòstics meteorològics de més de 4000 aeroports (METAR i TAF).

Les estacions disponibles són els punts grocs i vermells al mapa.

Posi el ratolí al punt desitjat per veure el nom de l'estació.

Feu clic per veure les observacions i els pronòstics meteorològics.

Per canviar el mapa: feu clic els botons verds amb una creu de color negre per apropar; al botó verd amb un guió per allunyar la imatge; o en les fletxes verdes per a mapes adjacents.


METAR-TAF: